createdAt,value
2023-10-20T00:01:55.717Z,94.84
2023-10-20T00:04:25.367Z,94.94
2023-10-20T00:06:52.281Z,95.16
2023-10-20T00:09:20.998Z,95.17
2023-10-20T00:11:49.794Z,95.21
2023-10-20T00:14:16.958Z,95.28
2023-10-20T00:16:43.991Z,95.11
2023-10-20T00:19:10.953Z,95.06
2023-10-20T00:21:40.607Z,95.23
2023-10-20T00:24:08.192Z,95.15
2023-10-20T00:26:36.400Z,95.33
2023-10-20T00:29:03.443Z,95.14
2023-10-20T00:31:31.737Z,95.34
2023-10-20T00:33:58.822Z,95.35
2023-10-20T00:36:25.686Z,95.50
2023-10-20T00:38:52.541Z,95.36
2023-10-20T00:41:19.478Z,95.32
2023-10-20T00:43:47.763Z,95.27
2023-10-20T00:46:14.943Z,95.46
2023-10-20T00:48:42.163Z,95.19
2023-10-20T00:51:09.506Z,95.44
2023-10-20T00:53:38.939Z,95.26
2023-10-20T00:56:07.696Z,95.50
2023-10-20T00:58:34.779Z,95.31
2023-10-20T01:01:05.657Z,95.32
2023-10-20T01:03:35.117Z,95.54
2023-10-20T01:06:04.259Z,95.34
2023-10-20T01:08:31.931Z,95.32
2023-10-20T01:10:59.225Z,95.10
2023-10-20T01:13:26.455Z,95.25
2023-10-20T01:15:54.986Z,95.28
2023-10-20T01:18:23.493Z,95.24
2023-10-20T01:20:50.454Z,95.37
2023-10-20T01:23:17.378Z,95.33
2023-10-20T01:25:45.673Z,95.22
2023-10-20T01:28:12.550Z,95.33
2023-10-20T01:30:39.571Z,95.13
2023-10-20T01:33:06.500Z,95.33
2023-10-20T01:35:36.844Z,95.22
2023-10-20T01:38:05.231Z,95.46
2023-10-20T01:40:32.829Z,95.36
2023-10-20T01:43:01.057Z,95.41
2023-10-20T01:45:28.162Z,95.43
2023-10-20T01:47:55.649Z,95.23
2023-10-20T01:50:24.808Z,94.93
2023-10-20T01:52:51.701Z,95.10
2023-10-20T01:55:18.512Z,95.20
2023-10-20T01:57:45.389Z,95.23
2023-10-20T02:00:15.132Z,95.15
2023-10-20T02:02:42.277Z,95.09
2023-10-20T02:05:09.897Z,95.18
2023-10-20T02:07:37.086Z,95.10
2023-10-20T02:10:05.168Z,94.99
2023-10-20T02:12:32.802Z,94.96
2023-10-20T02:14:59.613Z,95.01
2023-10-20T02:17:27.940Z,95.13
2023-10-20T02:19:54.870Z,95.16
2023-10-20T02:22:21.746Z,95.28
2023-10-20T02:24:48.795Z,95.11
2023-10-20T02:27:15.615Z,94.99
2023-10-20T02:29:42.612Z,94.95
2023-10-20T02:32:09.679Z,95.08
2023-10-20T02:34:38.007Z,94.94
2023-10-20T02:37:04.931Z,95.07
2023-10-20T02:39:32.115Z,95.17
2023-10-20T02:41:59.010Z,95.07
2023-10-20T02:44:28.683Z,95.12
2023-10-20T02:46:55.878Z,94.97
2023-10-20T02:49:22.825Z,94.89
2023-10-20T02:51:51.123Z,94.79
2023-10-20T02:54:18.664Z,94.65
2023-10-20T02:56:45.477Z,94.70
2023-10-20T02:59:14.004Z,94.83
2023-10-20T03:01:40.931Z,94.83
2023-10-20T03:04:08.337Z,94.93
2023-10-20T03:06:35.352Z,94.82
2023-10-20T03:09:04.527Z,94.79
2023-10-20T03:11:31.451Z,94.77
2023-10-20T03:13:58.315Z,94.98
2023-10-20T03:16:26.335Z,94.75
2023-10-20T03:18:53.282Z,94.73
2023-10-20T03:21:22.324Z,94.78
2023-10-20T03:23:49.062Z,94.61
2023-10-20T03:26:17.462Z,94.86
2023-10-20T03:28:45.159Z,94.84
2023-10-20T03:31:12.409Z,94.54
2023-10-20T03:33:39.348Z,94.61
2023-10-20T03:36:06.664Z,94.40
2023-10-20T03:38:34.608Z,94.63
2023-10-20T03:41:08.648Z,94.55
2023-10-20T03:43:37.438Z,94.62
2023-10-20T03:46:07.911Z,94.49
2023-10-20T03:48:36.220Z,94.53
2023-10-20T03:51:06.766Z,94.42
2023-10-20T03:53:48.050Z,94.34
2023-10-20T03:56:16.357Z,94.25
2023-10-20T03:58:48.357Z,94.19
2023-10-20T04:01:15.787Z,94.28
2023-10-20T04:03:46.321Z,94.30
2023-10-20T04:06:14.403Z,94.39
2023-10-20T04:08:42.762Z,94.22
2023-10-20T04:11:09.627Z,94.13
2023-10-20T04:13:36.627Z,94.27
2023-10-20T04:16:14.655Z,94.37
2023-10-20T04:18:42.187Z,94.25
2023-10-20T04:21:13.009Z,94.00
2023-10-20T04:23:45.192Z,94.24
2023-10-20T04:26:23.008Z,94.20
2023-10-20T04:29:04.334Z,94.25
2023-10-20T04:31:51.230Z,94.35
2023-10-20T04:34:36.402Z,94.05
2023-10-20T04:37:21.643Z,94.11
2023-10-20T04:40:07.066Z,94.21
2023-10-20T04:42:33.981Z,93.96
2023-10-20T04:45:23.139Z,94.21
2023-10-20T04:47:54.583Z,93.93
2023-10-20T04:50:42.257Z,94.06
2023-10-20T04:53:12.017Z,93.93
2023-10-20T04:55:57.609Z,94.06
2023-10-20T04:58:35.911Z,93.88
2023-10-20T05:01:08.763Z,93.91
2023-10-20T05:03:46.916Z,94.09
2023-10-20T05:06:44.058Z,94.06
2023-10-20T05:09:14.498Z,93.99
2023-10-20T05:11:42.172Z,93.82
2023-10-20T05:14:09.515Z,94.14
2023-10-20T05:16:36.530Z,94.20
2023-10-20T05:19:05.559Z,93.84
2023-10-20T05:21:39.422Z,94.11
2023-10-20T05:24:07.245Z,94.22
2023-10-20T05:26:35.908Z,93.80
2023-10-20T05:29:02.863Z,94.05
2023-10-20T05:31:31.393Z,94.17
2023-10-20T05:33:58.474Z,93.68
2023-10-20T05:36:26.777Z,93.74
2023-10-20T05:38:53.611Z,94.12
2023-10-20T05:41:20.484Z,94.08
2023-10-20T05:43:47.456Z,93.82
2023-10-20T05:46:16.559Z,93.89
2023-10-20T05:48:43.507Z,94.10
2023-10-20T05:51:10.598Z,93.96
2023-10-20T05:53:39.126Z,93.89
2023-10-20T05:56:07.163Z,94.12
2023-10-20T05:58:35.610Z,93.93
2023-10-20T06:01:06.614Z,93.72
2023-10-20T06:03:34.050Z,93.72
2023-10-20T06:06:01.771Z,93.91
2023-10-20T06:08:30.823Z,93.55
2023-10-20T06:11:06.860Z,93.56
2023-10-20T06:13:36.053Z,93.43
2023-10-20T06:16:10.273Z,93.75
2023-10-20T06:18:37.934Z,93.84
2023-10-20T06:21:05.542Z,93.65
2023-10-20T06:23:32.671Z,93.70
2023-10-20T06:26:00.309Z,93.96
2023-10-20T06:28:28.576Z,93.69
2023-10-20T06:30:58.789Z,93.71
2023-10-20T06:33:30.478Z,93.78
2023-10-20T06:36:01.906Z,93.76
2023-10-20T06:38:38.733Z,93.82
2023-10-20T06:41:06.044Z,93.53
2023-10-20T06:43:34.392Z,93.75
2023-10-20T06:46:02.142Z,93.80
2023-10-20T06:48:29.666Z,94.02
2023-10-20T06:50:57.496Z,93.67
2023-10-20T06:53:24.776Z,93.66
2023-10-20T06:56:09.852Z,93.91
2023-10-20T06:58:40.849Z,93.97
2023-10-20T07:01:08.324Z,93.57
2023-10-20T07:03:35.729Z,93.78
2023-10-20T07:06:08.235Z,93.49
2023-10-20T07:08:38.576Z,93.43
2023-10-20T07:11:06.132Z,93.43
2023-10-20T07:13:33.544Z,93.91
2023-10-20T07:16:02.173Z,93.61
2023-10-20T07:18:29.849Z,93.51
2023-10-20T07:20:58.586Z,93.46
2023-10-20T07:23:26.309Z,93.72
2023-10-20T07:25:54.481Z,93.72
2023-10-20T07:28:23.286Z,93.77
2023-10-20T07:30:50.322Z,93.83
2023-10-20T07:33:18.584Z,93.71
2023-10-20T07:35:45.643Z,93.67
2023-10-20T07:38:14.318Z,93.36
2023-10-20T07:40:41.943Z,93.54
2023-10-20T07:43:09.026Z,93.63
2023-10-20T07:45:39.247Z,93.78
2023-10-20T07:48:07.214Z,93.71
2023-10-20T07:50:35.652Z,93.51
2023-10-20T07:53:03.144Z,93.48
2023-10-20T07:55:29.927Z,93.40
2023-10-20T07:57:56.885Z,93.48
2023-10-20T08:00:25.415Z,93.51
2023-10-20T08:02:55.041Z,93.62
2023-10-20T08:05:23.060Z,93.55
2023-10-20T08:07:51.699Z,93.47
2023-10-20T08:10:18.620Z,93.57
2023-10-20T08:12:45.567Z,93.46
2023-10-20T08:15:12.552Z,93.14
2023-10-20T08:17:39.797Z,93.43
2023-10-20T08:20:11.019Z,93.25
2023-10-20T08:22:38.167Z,93.25
2023-10-20T08:25:08.422Z,93.32
2023-10-20T08:27:35.405Z,93.42
2023-10-20T08:30:02.524Z,93.37
2023-10-20T08:32:30.081Z,93.41
2023-10-20T08:34:56.989Z,93.36
2023-10-20T08:37:23.875Z,93.70
2023-10-20T08:39:50.767Z,92.94
2023-10-20T08:42:20.184Z,93.46
2023-10-20T08:44:48.105Z,93.68
2023-10-20T08:47:17.425Z,93.48
2023-10-20T08:49:45.382Z,93.36
2023-10-20T08:52:13.507Z,93.48
2023-10-20T08:54:40.745Z,93.86
2023-10-20T08:57:09.418Z,93.59
2023-10-20T08:59:38.032Z,93.23
2023-10-20T09:02:05.363Z,93.59
2023-10-20T09:04:32.456Z,93.75
2023-10-20T09:07:03.302Z,93.62
2023-10-20T09:09:30.890Z,93.22
2023-10-20T09:11:57.755Z,93.50
2023-10-20T09:14:26.274Z,93.29
2023-10-20T09:16:58.426Z,93.41
2023-10-20T09:19:25.230Z,93.77
2023-10-20T09:21:53.964Z,93.66
2023-10-20T09:24:20.800Z,93.21
2023-10-20T09:26:48.194Z,93.55
2023-10-20T09:29:16.512Z,93.74
2023-10-20T09:31:43.626Z,93.80
2023-10-20T09:34:11.888Z,93.66
2023-10-20T09:36:41.727Z,93.46
2023-10-20T09:39:12.445Z,93.37
2023-10-20T09:41:45.308Z,93.60
2023-10-20T09:44:19.883Z,93.66
2023-10-20T09:46:55.779Z,93.55
2023-10-20T09:49:28.362Z,93.42
2023-10-20T09:51:58.267Z,93.76
2023-10-20T09:54:27.095Z,93.67
2023-10-20T09:56:55.352Z,93.81
2023-10-20T09:59:27.296Z,93.54
2023-10-20T10:01:55.513Z,93.74
2023-10-20T10:04:28.430Z,93.46
2023-10-20T10:06:56.960Z,93.62
2023-10-20T10:09:23.917Z,93.53
2023-10-20T10:11:56.225Z,93.65
2023-10-20T10:14:24.329Z,93.93
2023-10-20T10:17:00.261Z,93.69
2023-10-20T10:19:29.202Z,93.65
2023-10-20T10:22:02.478Z,93.96
2023-10-20T10:24:33.018Z,93.94
2023-10-20T10:27:03.285Z,93.74
2023-10-20T10:29:52.315Z,93.98
2023-10-20T10:32:21.216Z,93.57
2023-10-20T10:35:02.516Z,93.65
2023-10-20T10:37:34.342Z,93.67
2023-10-20T10:40:10.099Z,94.06
2023-10-20T10:42:39.892Z,93.72
2023-10-20T10:45:21.419Z,93.94
2023-10-20T10:47:49.264Z,93.85
2023-10-20T10:50:18.270Z,93.91
2023-10-20T10:52:45.388Z,93.60
2023-10-20T10:55:12.422Z,93.64
2023-10-20T10:57:40.224Z,93.90
2023-10-20T11:00:08.746Z,93.80
2023-10-20T11:02:36.328Z,94.06
2023-10-20T11:05:04.230Z,93.94
2023-10-20T11:07:32.502Z,93.83
2023-10-20T11:10:01.242Z,94.07
2023-10-20T11:12:28.139Z,94.02
2023-10-20T11:14:58.004Z,94.09
2023-10-20T11:17:25.710Z,93.97
2023-10-20T11:19:53.085Z,93.81
2023-10-20T11:22:19.987Z,93.92
2023-10-20T11:24:54.030Z,94.10
2023-10-20T11:27:21.270Z,94.34
2023-10-20T11:29:59.023Z,93.96
2023-10-20T11:32:27.260Z,93.97
2023-10-20T11:34:54.412Z,94.35
2023-10-20T11:37:21.228Z,94.02
2023-10-20T11:39:48.271Z,94.00
2023-10-20T11:42:16.588Z,94.29
2023-10-20T11:44:43.463Z,94.17
2023-10-20T11:47:10.438Z,94.08
2023-10-20T11:49:37.300Z,94.32
2023-10-20T11:52:07.332Z,94.02
2023-10-20T11:54:34.517Z,94.35
2023-10-20T11:57:02.503Z,94.17
2023-10-20T11:59:30.813Z,94.40
2023-10-20T12:01:59.678Z,94.18
2023-10-20T12:04:26.977Z,94.52
2023-10-20T12:06:53.824Z,94.65
2023-10-20T12:09:21.179Z,94.31
2023-10-20T12:11:48.523Z,94.44
2023-10-20T12:14:16.250Z,94.02
2023-10-20T12:16:46.458Z,94.12
2023-10-20T12:19:13.339Z,94.59
2023-10-20T12:21:40.094Z,94.47
2023-10-20T12:24:07.950Z,94.49
2023-10-20T12:26:34.899Z,94.32
2023-10-20T12:29:01.955Z,94.50
2023-10-20T12:31:30.716Z,94.74
2023-10-20T12:33:59.750Z,94.54
2023-10-20T12:36:29.510Z,94.47
2023-10-20T12:39:08.241Z,94.56
2023-10-20T12:41:35.157Z,94.52
2023-10-20T12:44:02.162Z,94.60
2023-10-20T12:46:29.829Z,94.55
2023-10-20T12:48:56.989Z,94.53
2023-10-20T12:51:31.836Z,94.56
2023-10-20T12:53:58.607Z,94.75
2023-10-20T12:56:26.214Z,94.72
2023-10-20T12:58:53.413Z,94.58
2023-10-20T13:01:20.254Z,94.44
2023-10-20T13:03:47.516Z,94.45
2023-10-20T13:06:15.189Z,94.50
2023-10-20T13:08:47.002Z,94.53
2023-10-20T13:11:14.113Z,94.43
2023-10-20T13:13:41.021Z,94.43
2023-10-20T13:16:08.006Z,94.34
2023-10-20T13:18:35.088Z,94.54
2023-10-20T13:21:07.059Z,94.80
2023-10-20T13:23:34.309Z,94.36
2023-10-20T13:26:05.730Z,94.52
2023-10-20T13:28:32.754Z,94.64
2023-10-20T13:33:36.202Z,94.62
2023-10-20T13:36:04.003Z,94.63
2023-10-20T13:38:33.023Z,94.68
2023-10-20T13:41:00.651Z,94.69
2023-10-20T13:43:28.775Z,94.56
2023-10-20T13:45:55.708Z,94.65
2023-10-20T13:48:22.712Z,94.66
2023-10-20T13:50:49.900Z,94.57
2023-10-20T13:53:16.928Z,94.62
2023-10-20T13:55:44.976Z,94.54
2023-10-20T13:58:15.819Z,94.40
2023-10-20T14:00:44.198Z,94.85
2023-10-20T14:03:11.300Z,94.55
2023-10-20T14:05:38.910Z,94.62
2023-10-20T14:08:06.999Z,94.39
2023-10-20T14:10:34.014Z,94.45
2023-10-20T14:13:00.878Z,94.69
2023-10-20T14:15:29.013Z,94.82
2023-10-20T14:17:58.134Z,94.90
2023-10-20T14:20:25.617Z,94.47
2023-10-20T14:22:52.726Z,94.83
2023-10-20T14:25:19.787Z,94.60
2023-10-20T14:27:46.647Z,94.78
2023-10-20T14:30:13.715Z,94.76
2023-10-20T14:32:40.705Z,94.80
2023-10-20T14:35:09.805Z,94.35
2023-10-20T14:37:36.777Z,94.76
2023-10-20T14:40:04.428Z,94.64
2023-10-20T14:42:31.721Z,94.77
2023-10-20T14:44:58.680Z,94.64
2023-10-20T14:47:26.914Z,94.64
2023-10-20T14:49:55.100Z,94.63
2023-10-20T14:52:23.571Z,94.53
2023-10-20T14:54:51.644Z,94.53
2023-10-20T14:57:18.580Z,94.77
2023-10-20T14:59:45.582Z,94.57
2023-10-20T15:02:12.780Z,94.49
2023-10-20T15:04:40.071Z,94.52
2023-10-20T15:07:07.210Z,94.51
2023-10-20T15:09:35.628Z,94.65
2023-10-20T15:12:03.030Z,94.40
2023-10-20T15:14:30.080Z,94.35
2023-10-20T15:16:58.426Z,94.42
2023-10-20T15:19:26.097Z,94.48
2023-10-20T15:21:54.069Z,94.89
2023-10-20T15:24:21.224Z,94.57
2023-10-20T15:26:51.469Z,94.80
2023-10-20T15:29:19.010Z,94.95
2023-10-20T15:31:46.906Z,94.92
2023-10-20T15:34:15.042Z,94.58
2023-10-20T15:36:50.691Z,94.82
2023-10-20T15:39:26.615Z,94.60
2023-10-20T15:42:00.374Z,94.37
2023-10-20T15:44:27.385Z,94.58
2023-10-20T15:47:00.304Z,94.83
2023-10-20T15:49:28.066Z,94.62
2023-10-20T15:51:54.919Z,94.43
2023-10-20T15:54:21.769Z,94.37
2023-10-20T15:56:52.799Z,94.57
2023-10-20T15:59:21.090Z,94.33
2023-10-20T16:01:47.972Z,94.38
2023-10-20T16:04:18.621Z,94.61
2023-10-20T16:06:48.049Z,94.44
2023-10-20T16:09:19.603Z,94.37
2023-10-20T16:11:46.924Z,94.40
2023-10-20T16:14:14.012Z,94.63
2023-10-20T16:16:42.278Z,94.60
2023-10-20T16:19:12.491Z,94.75
2023-10-20T16:21:39.375Z,94.43
2023-10-20T16:24:06.961Z,94.45
2023-10-20T16:26:33.994Z,94.70
2023-10-20T16:29:01.403Z,94.50
2023-10-20T16:31:28.313Z,94.68
2023-10-20T16:33:56.600Z,94.55
2023-10-20T16:36:23.587Z,94.39
2023-10-20T16:38:50.493Z,94.80
2023-10-20T16:41:19.115Z,94.27
2023-10-20T16:43:46.001Z,94.39
2023-10-20T16:46:12.874Z,94.79
2023-10-20T16:48:40.178Z,94.73
2023-10-20T16:51:11.796Z,94.73
2023-10-20T16:53:40.607Z,94.83
2023-10-20T16:56:09.890Z,94.59
2023-10-20T16:58:36.964Z,94.75
2023-10-20T17:01:04.702Z,94.60
2023-10-20T17:03:32.407Z,94.87
2023-10-20T17:05:59.481Z,94.88
2023-10-20T17:08:28.569Z,94.68
2023-10-20T17:10:56.010Z,94.81
2023-10-20T17:13:22.853Z,94.54
2023-10-20T17:15:51.856Z,94.65
2023-10-20T17:18:19.056Z,94.80
2023-10-20T17:20:46.087Z,94.61
2023-10-20T17:23:14.689Z,94.84
2023-10-20T17:25:47.674Z,94.73
2023-10-20T17:28:14.623Z,94.71
2023-10-20T17:30:41.594Z,94.56
2023-10-20T17:33:09.834Z,94.63
2023-10-20T17:35:37.441Z,94.64
2023-10-20T17:38:05.550Z,94.75
2023-10-20T17:40:35.916Z,94.52
2023-10-20T17:43:04.402Z,94.85
2023-10-20T17:45:31.413Z,94.75
2023-10-20T17:47:58.523Z,94.84
2023-10-20T17:50:25.673Z,94.60
2023-10-20T17:52:53.853Z,94.91
2023-10-20T17:55:23.821Z,94.84
2023-10-20T17:57:50.640Z,95.02
2023-10-20T18:00:22.152Z,94.99
2023-10-20T18:02:50.395Z,95.09
2023-10-20T18:05:18.384Z,95.06
2023-10-20T18:07:45.520Z,95.07
2023-10-20T18:10:13.165Z,95.28
2023-10-20T18:12:40.081Z,95.19
2023-10-20T18:15:09.036Z,95.11
2023-10-20T18:17:38.931Z,95.15
2023-10-20T18:20:07.517Z,95.55
2023-10-20T18:22:34.388Z,95.45
2023-10-20T18:25:01.231Z,95.08
2023-10-20T18:27:28.681Z,94.86
2023-10-20T18:29:56.779Z,95.35
2023-10-20T18:32:25.014Z,95.40
2023-10-20T18:34:53.393Z,95.23
2023-10-20T18:37:22.011Z,95.22
2023-10-20T18:39:48.918Z,95.31
2023-10-20T18:42:15.800Z,95.38
2023-10-20T18:44:42.664Z,95.48
2023-10-20T18:47:09.593Z,95.81
2023-10-20T18:49:36.511Z,95.62
2023-10-20T18:52:05.357Z,96.07
2023-10-20T18:54:32.475Z,95.75
2023-10-20T18:57:19.470Z,96.03
2023-10-20T18:59:46.542Z,95.81
2023-10-20T19:02:17.394Z,96.07
2023-10-20T19:04:46.162Z,96.32
2023-10-20T19:07:17.844Z,96.12
2023-10-20T19:09:44.871Z,96.44
2023-10-20T19:12:11.920Z,96.18
2023-10-20T19:14:38.894Z,96.30
2023-10-20T19:17:05.729Z,96.18
2023-10-20T19:19:32.676Z,96.22
2023-10-20T19:21:59.503Z,96.34
2023-10-20T19:24:28.124Z,96.21
2023-10-20T19:26:55.400Z,96.28
2023-10-20T19:29:22.355Z,96.23
2023-10-20T19:31:51.575Z,96.38
2023-10-20T19:34:18.340Z,96.52
2023-10-20T19:36:46.316Z,96.37
2023-10-20T19:39:35.496Z,96.49
2023-10-20T19:42:04.254Z,96.55
2023-10-20T19:44:31.111Z,96.62
2023-10-20T19:46:58.029Z,96.42
2023-10-20T19:49:26.175Z,96.45
2023-10-20T19:51:53.237Z,96.47
2023-10-20T19:54:20.193Z,96.46
2023-10-20T19:56:47.275Z,96.55
2023-10-20T19:59:18.767Z,96.69
2023-10-20T20:01:45.734Z,96.49
2023-10-20T20:04:13.271Z,96.56
2023-10-20T20:06:42.233Z,96.62
2023-10-20T20:09:09.321Z,96.77
2023-10-20T20:11:36.950Z,96.62
2023-10-20T20:14:04.643Z,96.78
2023-10-20T20:16:33.146Z,96.65
2023-10-20T20:18:59.987Z,96.48
2023-10-20T20:21:28.088Z,96.79
2023-10-20T20:23:55.114Z,96.62
2023-10-20T20:26:22.395Z,96.83
2023-10-20T20:28:49.529Z,96.62
2023-10-20T20:31:16.527Z,96.67
2023-10-20T20:33:45.080Z,96.45
2023-10-20T20:36:12.000Z,96.32
2023-10-20T20:38:39.160Z,96.67
2023-10-20T20:41:06.721Z,96.93
2023-10-20T20:43:34.859Z,96.66
2023-10-20T20:46:02.523Z,96.72
2023-10-20T20:48:32.148Z,96.65
2023-10-20T20:51:00.494Z,96.52
2023-10-20T20:53:27.356Z,96.52
2023-10-20T20:55:54.429Z,96.35
2023-10-20T20:58:21.424Z,96.74
2023-10-20T21:00:48.304Z,96.93
2023-10-20T21:03:15.471Z,96.73
2023-10-20T21:05:42.502Z,96.52
2023-10-20T21:08:10.770Z,96.38
2023-10-20T21:10:37.761Z,96.82
2023-10-20T21:13:04.713Z,96.62
2023-10-20T21:15:31.608Z,96.56
2023-10-20T21:17:58.818Z,96.79
2023-10-20T21:20:25.795Z,96.65
2023-10-20T21:22:55.205Z,96.82
2023-10-20T21:25:23.702Z,96.76
2023-10-20T21:27:50.622Z,96.77
2023-10-20T21:30:17.578Z,96.77
2023-10-20T21:32:44.495Z,96.78
2023-10-20T21:35:11.481Z,96.79
2023-10-20T21:37:38.369Z,96.76
2023-10-20T21:40:06.760Z,97.00
2023-10-20T21:42:36.315Z,96.65
2023-10-20T21:45:04.177Z,96.71
2023-10-20T21:47:31.213Z,96.82
2023-10-20T21:50:00.704Z,96.76
2023-10-20T21:52:30.233Z,96.67
2023-10-20T21:54:59.560Z,96.51
2023-10-20T21:57:27.494Z,96.49
2023-10-20T21:59:56.536Z,96.67
2023-10-20T22:02:23.753Z,96.62
2023-10-20T22:04:52.850Z,96.47
2023-10-20T22:07:19.711Z,96.42
2023-10-20T22:09:53.682Z,96.65
2023-10-20T22:12:21.557Z,96.54
2023-10-20T22:14:48.474Z,96.61
2023-10-20T22:17:16.657Z,96.64
2023-10-20T22:19:45.856Z,96.44
2023-10-20T22:22:13.278Z,96.57
2023-10-20T22:24:40.501Z,96.42
2023-10-20T22:27:11.140Z,96.41
2023-10-20T22:29:38.330Z,96.40
2023-10-20T22:32:06.528Z,96.30
2023-10-20T22:34:35.466Z,96.36
2023-10-20T22:37:02.302Z,96.41
2023-10-20T22:39:29.124Z,96.31
2023-10-20T22:42:00.749Z,96.21
2023-10-20T22:44:28.701Z,96.20
2023-10-20T22:46:55.672Z,96.23
2023-10-20T22:49:22.846Z,96.02
2023-10-20T22:51:51.123Z,96.28
2023-10-20T22:54:17.991Z,96.41
2023-10-20T22:56:44.983Z,96.31
2023-10-20T22:59:11.967Z,96.09
2023-10-20T23:01:38.806Z,96.39
2023-10-20T23:04:06.894Z,96.08
2023-10-20T23:06:33.852Z,96.28
2023-10-20T23:09:04.192Z,96.08
2023-10-20T23:11:31.035Z,96.15
2023-10-20T23:13:58.083Z,95.86
2023-10-20T23:16:25.124Z,95.95
2023-10-20T23:18:58.528Z,95.84
2023-10-20T23:21:25.422Z,95.70
2023-10-20T23:23:52.488Z,95.82
2023-10-20T23:26:22.227Z,95.74
2023-10-20T23:28:49.506Z,95.83
2023-10-20T23:31:17.445Z,95.74
2023-10-20T23:33:44.366Z,95.77
2023-10-20T23:36:11.587Z,95.90
2023-10-20T23:38:38.907Z,95.59
2023-10-20T23:41:06.032Z,95.63
2023-10-20T23:43:34.536Z,95.65
2023-10-20T23:46:01.517Z,95.58
2023-10-20T23:48:28.433Z,95.40
2023-10-20T23:50:57.128Z,95.36
2023-10-20T23:53:24.272Z,95.48
2023-10-20T23:55:51.122Z,95.76
2023-10-20T23:58:18.079Z,95.78
